Cape Cod — WBK3243 — position and weather

sailwx.info

Track history (hours):
 
Tides and Currents Weather Stations Pressure Air Temp Water Temp Dewpoint Dewpoint Depression Visibility Wind Speed Wind Dir Waves Ship Positions

Cape Cod

Owner: MORAN TOWING CORPORATION, New Canaan, CT. More information available from US FCC via Universal Licensing System and Coast Guard Vessel Documentation Center.

Last reported at 2016-May-03 19:33 UTC. Time now 2016-May-03 20:11 UTC.
Position N 39°53' W 075°11'.

Length 33 m; draft 4.8 m.

Type: Tug. MMSI: 366939770.

Date/timePositionNaut miles runAvg speedWind from/ knotsBaromVisibWave heightAir tempDewpointWater temp
2016-May-03 19:33N 39°53' W 075°11'0 0.0
2016-May-03 18:33N 39°53' W 075°11'0 0.0
2016-May-03 17:33N 39°53' W 075°11'0 0.0
2016-May-03 16:33N 39°53' W 075°11'0 0.0
2016-May-03 15:33N 39°53' W 075°11'0 0.0
2016-May-03 14:33N 39°53' W 075°11'0 0.0
2016-May-03 13:33N 39°53' W 075°11'0 0.0
2016-May-03 12:33N 39°53' W 075°11'0 0.0
2016-May-03 11:33N 39°53' W 075°11'3 2.7
2016-May-03 10:33N 39°55' W 075°08'2 2.3
2016-May-03 09:33N 39°53' W 075°09'1 1.2
2016-May-03 08:33N 39°53' W 075°11'0 0.0
2016-May-03 07:33N 39°53' W 075°11'0 0.0
2016-May-03 06:33N 39°53' W 075°11'0 0.0
2016-May-03 05:33N 39°53' W 075°11'0 0.0
2016-May-03 04:33N 39°53' W 075°11'0 0.0
2016-May-03 03:33N 39°53' W 075°11'0 0.0
2016-May-03 02:33N 39°53' W 075°11'0 0.0
2016-May-03 01:33N 39°53' W 075°11'0 0.0
2016-May-03 00:33N 39°53' W 075°11'0 0.0
2016-May-02 23:33N 39°53' W 075°11'0 0.0
2016-May-02 22:33N 39°53' W 075°11'0 0.0
2016-May-02 21:33N 39°53' W 075°11'0 0.0
2016-May-02 20:33N 39°53' W 075°11'0 0.0
2016-May-02 19:33N 39°53' W 075°11'0 0.0
2016-May-02 18:33N 39°53' W 075°11'0 0.0
2016-May-02 17:33N 39°53' W 075°11'0 0.0
2016-May-02 16:33N 39°53' W 075°11'0 0.0
2016-May-02 15:33N 39°53' W 075°11'0 0.0
2016-May-02 14:33N 39°53' W 075°11'0 0.0
2016-May-02 13:34N 39°53' W 075°11'1 0.8
2016-May-02 12:33N 39°54' W 075°12'6 6.4
2016-May-02 11:33N 39°51' W 075°19'2 1.6
2016-May-02 10:33N 39°50' W 075°21'1 0.8
2016-May-02 09:34N 39°51' W 075°20'9 9.0
2016-May-02 08:33N 39°45' W 075°29'3 2.5
2016-May-02 07:33N 39°43' W 075°32'0 0.0
2016-May-02 06:33N 39°43' W 075°32'0 0.0
2016-May-02 05:33N 39°43' W 075°32'0 0.0
2016-May-02 04:34N 39°43' W 075°32'0 0.0
2016-May-02 03:33N 39°43' W 075°32'0 0.0
2016-May-02 02:33N 39°43' W 075°32'0 0.0
2016-May-02 01:33N 39°43' W 075°32'0 0.0
2016-May-02 00:33N 39°43' W 075°32'0 0.0
2016-May-01 23:33N 39°43' W 075°32'0 0.0
2016-May-01 22:33N 39°43' W 075°32'0 0.0
2016-May-01 21:34N 39°43' W 075°32'5 5.1
2016-May-01 20:33N 39°38' W 075°34'4 3.5
2016-May-01 19:33N 39°35' W 075°35'2 1.6
2016-May-01 18:33N 39°35' W 075°33'1010.3
2016-May-01 17:33N 39°45' W 075°30'1111.1
2016-May-01 16:34N 39°51' W 075°18'6 6.0
2016-May-01 15:34N 39°53' W 075°11'0 0.0
2016-May-01 14:34N 39°53' W 075°11'0 0.0
2016-May-01 13:34N 39°53' W 075°11'0 0.0
2016-May-01 12:34N 39°53' W 075°11'0 0.0
2016-May-01 11:34N 39°53' W 075°11'0 0.0
2016-May-01 10:34N 39°53' W 075°11'0 0.0
2016-May-01 09:34N 39°53' W 075°11'0 0.0
2016-May-01 08:34N 39°53' W 075°11'0 0.0
2016-May-01 07:34N 39°53' W 075°11'0 0.0
2016-May-01 06:33N 39°53' W 075°11'4 3.9
2016-May-01 05:34N 39°51' W 075°15'9 9.1
2016-May-01 04:33N 39°48' W 075°26'1110.9
2016-May-01 03:33N 39°39' W 075°34'1010.3
2016-May-01 02:33N 39°28' W 075°34'1111.2
2016-May-01 01:33N 39°20' W 075°25'1111.1
2016-May-01 00:33N 39°11' W 075°16'6 2.7
2016-Apr-30 22:20N 39°06' W 075°12'8 9.8
2016-Apr-30 21:34N 39°12' W 075°17'8 8.5
2016-Apr-30 20:33N 39°19' W 075°24'8 8.0
2016-Apr-30 19:34N 39°25' W 075°31'8 8.1
2016-Apr-30 18:33N 39°33' W 075°33'9 9.2
2016-Apr-30 17:33N 39°42' W 075°31'1110.5
2016-Apr-30 16:33N 39°50' W 075°22'1110.7
2016-Apr-30 15:34N 39°53' W 075°09'5 5.4
2016-Apr-30 14:34N 39°58' W 075°07'1 0.6
2016-Apr-30 13:34N 39°58' W 075°06'0 0.1
2016-Apr-30 12:34N 39°59' W 075°06'0 0.0
2016-Apr-30 11:34N 39°59' W 075°06'0 0.0
2016-Apr-30 10:34N 39°59' W 075°06'0 0.0
2016-Apr-30 09:34N 39°59' W 075°06'0 0.0
2016-Apr-30 08:34N 39°59' W 075°06'0 0.0
2016-Apr-30 07:34N 39°59' W 075°06'0 0.0
2016-Apr-30 06:34N 39°59' W 075°06'0 0.0
2016-Apr-30 05:34N 39°59' W 075°06'0 0.0
2016-Apr-30 04:33N 39°59' W 075°06'6 6.1
2016-Apr-30 03:33N 40°02' W 074°59'9 2.0
2016-Apr-29 23:19N 40°07' W 074°50'810.3
2016-Apr-29 22:33N 40°03' W 074°58'1010.4
2016-Apr-29 21:33N 39°55' W 075°08'3 3.0
2016-Apr-29 20:33N 39°53' W 075°11'0 0.0
2016-Apr-29 19:33N 39°53' W 075°11'0 0.0
2016-Apr-29 18:33N 39°53' W 075°11'0 0.0
2016-Apr-29 17:33N 39°53' W 075°11'6 5.8
2016-Apr-29 16:33N 39°58' W 075°07'3 2.9
2016-Apr-29 15:33N 39°55' W 075°08'7 6.7
2016-Apr-29 14:33N 39°51' W 075°15'8 7.7
2016-Apr-29 13:33N 39°49' W 075°24'8 8.5
2016-Apr-29 12:33N 39°42' W 075°31'8 8.0
2016-Apr-29 11:33N 39°34' W 075°33'9 9.0
2016-Apr-29 10:33N 39°25' W 075°31'20 4.0
2016-Apr-29 05:32N 39°09' W 075°15'1211.9
2016-Apr-29 04:33N 39°19' W 075°24'1312.8
2016-Apr-29 03:33N 39°29' W 075°34'1313.3
2016-Apr-29 02:34N 39°42' W 075°31'1312.9
2016-Apr-29 01:34N 39°51' W 075°19'7 6.9
2016-Apr-29 00:33N 39°53' W 075°11'0 0.0
2016-Apr-28 23:33N 39°53' W 075°11'0 0.0
2016-Apr-28 22:33N 39°53' W 075°11'0 0.0
2016-Apr-28 21:33N 39°53' W 075°11'0 0.0
2016-Apr-28 20:33N 39°53' W 075°11'0 0.0
2016-Apr-28 19:33N 39°53' W 075°11'1 0.8
2016-Apr-28 18:34N 39°54' W 075°11'0 0.0
2016-Apr-28 17:33N 39°54' W 075°11'0 0.0
2016-Apr-28 16:33N 39°54' W 075°11'0 0.0
2016-Apr-28 15:33N 39°54' W 075°11'6 6.4
2016-Apr-28 14:33N 39°51' W 075°19'5 5.2
2016-Apr-28 13:33N 39°48' W 075°25'1 0.6
2016-Apr-28 12:33N 39°49' W 075°24'0 0.2
2016-Apr-28 11:33N 39°49' W 075°24'9 8.9
2016-Apr-28 10:33N 39°52' W 075°13'2 2.4
2016-Apr-28 09:33N 39°53' W 075°11'0 0.0
2016-Apr-28 08:33N 39°53' W 075°11'0 0.0
2016-Apr-28 07:34N 39°53' W 075°11'0 0.0
2016-Apr-28 06:33N 39°53' W 075°11'0 0.0
2016-Apr-28 05:33N 39°53' W 075°11'0 0.0
2016-Apr-28 04:33N 39°53' W 075°11'0 0.0
2016-Apr-28 03:33N 39°53' W 075°11'0 0.0
2016-Apr-28 02:33N 39°53' W 075°11'  
2016-Apr-25 18:33N 39°53' W 075°11'0 0.0
2016-Apr-25 17:33N 39°53' W 075°11'0 0.0
2016-Apr-25 16:33N 39°53' W 075°11'0 0.0
2016-Apr-25 15:34N 39°53' W 075°11'0 0.0
2016-Apr-25 14:34N 39°53' W 075°11'0 0.0
2016-Apr-25 13:34N 39°53' W 075°11'0 0.0
2016-Apr-25 12:34N 39°53' W 075°11'0 0.0
2016-Apr-25 11:33N 39°53' W 075°11'0 0.0
2016-Apr-25 10:34N 39°53' W 075°11'0 0.0
2016-Apr-25 09:34N 39°53' W 075°11'0 0.0
2016-Apr-25 08:34N 39°53' W 075°11'0 0.0
2016-Apr-25 07:34N 39°53' W 075°11'0 0.0
2016-Apr-25 06:34N 39°53' W 075°11'0 0.0
2016-Apr-25 05:33N 39°53' W 075°11'3 3.4
2016-Apr-25 04:34N 39°56' W 075°08'0 0.0
2016-Apr-25 03:34N 39°56' W 075°08'0 0.0
2016-Apr-25 02:34N 39°56' W 075°08'0 0.0
2016-Apr-25 01:34N 39°56' W 075°08'3 3.5
2016-Apr-25 00:34N 39°53' W 075°10'0 0.4
2016-Apr-24 23:33N 39°53' W 075°11'0 0.0
2016-Apr-24 22:33N 39°53' W 075°11'0 0.0
2016-Apr-24 21:33N 39°53' W 075°11'0 0.0
2016-Apr-24 20:33N 39°53' W 075°11'0 0.0
2016-Apr-24 19:33N 39°53' W 075°11'0 0.0
2016-Apr-24 18:33N 39°53' W 075°11'0 0.0
2016-Apr-24 17:33N 39°53' W 075°11'0 0.0
2016-Apr-24 16:33N 39°53' W 075°11'0 0.0
2016-Apr-24 15:34N 39°53' W 075°11'0 0.0
2016-Apr-24 14:33N 39°53' W 075°11'4 3.6
2016-Apr-24 13:34N 39°56' W 075°08'1 1.4
2016-Apr-24 12:34N 39°55' W 075°08'1 1.4
2016-Apr-24 11:34N 39°56' W 075°08'0 0.0
2016-Apr-24 10:34N 39°56' W 075°08'1 0.6
2016-Apr-24 09:33N 39°57' W 075°08'1212.0
2016-Apr-24 08:33N 40°04' W 074°56'6 2.5
2016-Apr-24 06:20N 40°07' W 074°50'7 9.6
2016-Apr-24 05:33N 40°03' W 074°58'1010.2
2016-Apr-24 04:33N 39°57' W 075°08'4 3.9
2016-Apr-24 03:33N 39°53' W 075°11'0 0.0
2016-Apr-24 02:33N 39°53' W 075°11'0 0.0
2016-Apr-24 01:33N 39°53' W 075°11'0 0.0
2016-Apr-24 00:33N 39°53' W 075°11'0 0.0
2016-Apr-23 23:33N 39°53' W 075°11'0 0.0
2016-Apr-23 22:33N 39°53' W 075°11'0 0.0
2016-Apr-23 21:33N 39°53' W 075°11'3 3.5
2016-Apr-23 20:33N 39°56' W 075°08'1 0.7
2016-Apr-23 19:33N 39°55' W 075°08'  
Track history (hours):
 
Tides and Currents Weather Stations Pressure Air Temp Water Temp Dewpoint Dewpoint Depression Visibility Wind Speed Wind Dir Waves Ship Positions

Cape Cod

Owner: MORAN TOWING CORPORATION, New Canaan, CT. More information available from US FCC via Universal Licensing System and Coast Guard Vessel Documentation Center.

Last reported at 2016-May-03 19:33 UTC. Time now 2016-May-03 20:11 UTC.
Position N 39°53' W 075°11'.

Length 33 m; draft 4.8 m.

Type: Tug. MMSI: 366939770.

Date/timePositionNaut miles runAvg speedWind from/ knotsBaromVisibWave heightAir tempDewpointWater temp
2016-May-03 19:33N 39°53' W 075°11'0 0.0
2016-May-03 18:33N 39°53' W 075°11'0 0.0
2016-May-03 17:33N 39°53' W 075°11'0 0.0
2016-May-03 16:33N 39°53' W 075°11'0 0.0
2016-May-03 15:33N 39°53' W 075°11'0 0.0
2016-May-03 14:33N 39°53' W 075°11'0 0.0
2016-May-03 13:33N 39°53' W 075°11'0 0.0
2016-May-03 12:33N 39°53' W 075°11'0 0.0
2016-May-03 11:33N 39°53' W 075°11'3 2.7
2016-May-03 10:33N 39°55' W 075°08'2 2.3
2016-May-03 09:33N 39°53' W 075°09'1 1.2
2016-May-03 08:33N 39°53' W 075°11'0 0.0
2016-May-03 07:33N 39°53' W 075°11'0 0.0
2016-May-03 06:33N 39°53' W 075°11'0 0.0
2016-May-03 05:33N 39°53' W 075°11'0 0.0
2016-May-03 04:33N 39°53' W 075°11'0 0.0
2016-May-03 03:33N 39°53' W 075°11'0 0.0
2016-May-03 02:33N 39°53' W 075°11'0 0.0
2016-May-03 01:33N 39°53' W 075°11'0 0.0
2016-May-03 00:33N 39°53' W 075°11'0 0.0
2016-May-02 23:33N 39°53' W 075°11'0 0.0
2016-May-02 22:33N 39°53' W 075°11'0 0.0
2016-May-02 21:33N 39°53' W 075°11'0 0.0
2016-May-02 20:33N 39°53' W 075°11'0 0.0
2016-May-02 19:33N 39°53' W 075°11'0 0.0
2016-May-02 18:33N 39°53' W 075°11'0 0.0
2016-May-02 17:33N 39°53' W 075°11'0 0.0
2016-May-02 16:33N 39°53' W 075°11'0 0.0
2016-May-02 15:33N 39°53' W 075°11'0 0.0
2016-May-02 14:33N 39°53' W 075°11'0 0.0
2016-May-02 13:34N 39°53' W 075°11'1 0.8
2016-May-02 12:33N 39°54' W 075°12'6 6.4
2016-May-02 11:33N 39°51' W 075°19'2 1.6
2016-May-02 10:33N 39°50' W 075°21'1 0.8
2016-May-02 09:34N 39°51' W 075°20'9 9.0
2016-May-02 08:33N 39°45' W 075°29'3 2.5
2016-May-02 07:33N 39°43' W 075°32'0 0.0
2016-May-02 06:33N 39°43' W 075°32'0 0.0
2016-May-02 05:33N 39°43' W 075°32'0 0.0
2016-May-02 04:34N 39°43' W 075°32'0 0.0
2016-May-02 03:33N 39°43' W 075°32'0 0.0
2016-May-02 02:33N 39°43' W 075°32'0 0.0
2016-May-02 01:33N 39°43' W 075°32'0 0.0
2016-May-02 00:33N 39°43' W 075°32'0 0.0
2016-May-01 23:33N 39°43' W 075°32'0 0.0
2016-May-01 22:33N 39°43' W 075°32'0 0.0
2016-May-01 21:34N 39°43' W 075°32'5 5.1
2016-May-01 20:33N 39°38' W 075°34'4 3.5
2016-May-01 19:33N 39°35' W 075°35'2 1.6
2016-May-01 18:33N 39°35' W 075°33'1010.3
2016-May-01 17:33N 39°45' W 075°30'1111.1
2016-May-01 16:34N 39°51' W 075°18'6 6.0
2016-May-01 15:34N 39°53' W 075°11'0 0.0
2016-May-01 14:34N 39°53' W 075°11'0 0.0
2016-May-01 13:34N 39°53' W 075°11'0 0.0
2016-May-01 12:34N 39°53' W 075°11'0 0.0
2016-May-01 11:34N 39°53' W 075°11'0 0.0
2016-May-01 10:34N 39°53' W 075°11'0 0.0
2016-May-01 09:34N 39°53' W 075°11'0 0.0
2016-May-01 08:34N 39°53' W 075°11'0 0.0
2016-May-01 07:34N 39°53' W 075°11'0 0.0
2016-May-01 06:33N 39°53' W 075°11'4 3.9
2016-May-01 05:34N 39°51' W 075°15'9 9.1
2016-May-01 04:33N 39°48' W 075°26'1110.9
2016-May-01 03:33N 39°39' W 075°34'1010.3
2016-May-01 02:33N 39°28' W 075°34'1111.2
2016-May-01 01:33N 39°20' W 075°25'1111.1
2016-May-01 00:33N 39°11' W 075°16'6 2.7
2016-Apr-30 22:20N 39°06' W 075°12'8 9.8
2016-Apr-30 21:34N 39°12' W 075°17'8 8.5
2016-Apr-30 20:33N 39°19' W 075°24'8 8.0
2016-Apr-30 19:34N 39°25' W 075°31'8 8.1
2016-Apr-30 18:33N 39°33' W 075°33'9 9.2
2016-Apr-30 17:33N 39°42' W 075°31'1110.5
2016-Apr-30 16:33N 39°50' W 075°22'1110.7
2016-Apr-30 15:34N 39°53' W 075°09'5 5.4
2016-Apr-30 14:34N 39°58' W 075°07'1 0.6
2016-Apr-30 13:34N 39°58' W 075°06'0 0.1
2016-Apr-30 12:34N 39°59' W 075°06'0 0.0
2016-Apr-30 11:34N 39°59' W 075°06'0 0.0
2016-Apr-30 10:34N 39°59' W 075°06'0 0.0
2016-Apr-30 09:34N 39°59' W 075°06'0 0.0
2016-Apr-30 08:34N 39°59' W 075°06'0 0.0
2016-Apr-30 07:34N 39°59' W 075°06'0 0.0
2016-Apr-30 06:34N 39°59' W 075°06'0 0.0
2016-Apr-30 05:34N 39°59' W 075°06'0 0.0
2016-Apr-30 04:33N 39°59' W 075°06'6 6.1
2016-Apr-30 03:33N 40°02' W 074°59'9 2.0
2016-Apr-29 23:19N 40°07' W 074°50'810.3
2016-Apr-29 22:33N 40°03' W 074°58'1010.4
2016-Apr-29 21:33N 39°55' W 075°08'3 3.0
2016-Apr-29 20:33N 39°53' W 075°11'0 0.0
2016-Apr-29 19:33N 39°53' W 075°11'0 0.0
2016-Apr-29 18:33N 39°53' W 075°11'0 0.0
2016-Apr-29 17:33N 39°53' W 075°11'6 5.8
2016-Apr-29 16:33N 39°58' W 075°07'3 2.9
2016-Apr-29 15:33N 39°55' W 075°08'7 6.7
2016-Apr-29 14:33N 39°51' W 075°15'8 7.7
2016-Apr-29 13:33N 39°49' W 075°24'8 8.5
2016-Apr-29 12:33N 39°42' W 075°31'8 8.0
2016-Apr-29 11:33N 39°34' W 075°33'9 9.0
2016-Apr-29 10:33N 39°25' W 075°31'20 4.0
2016-Apr-29 05:32N 39°09' W 075°15'1211.9
2016-Apr-29 04:33N 39°19' W 075°24'1312.8
2016-Apr-29 03:33N 39°29' W 075°34'1313.3
2016-Apr-29 02:34N 39°42' W 075°31'1312.9
2016-Apr-29 01:34N 39°51' W 075°19'7 6.9
2016-Apr-29 00:33N 39°53' W 075°11'0 0.0
2016-Apr-28 23:33N 39°53' W 075°11'0 0.0
2016-Apr-28 22:33N 39°53' W 075°11'0 0.0
2016-Apr-28 21:33N 39°53' W 075°11'0 0.0
2016-Apr-28 20:33N 39°53' W 075°11'0 0.0
2016-Apr-28 19:33N 39°53' W 075°11'1 0.8
2016-Apr-28 18:34N 39°54' W 075°11'0 0.0
2016-Apr-28 17:33N 39°54' W 075°11'0 0.0
2016-Apr-28 16:33N 39°54' W 075°11'0 0.0
2016-Apr-28 15:33N 39°54' W 075°11'6 6.4
2016-Apr-28 14:33N 39°51' W 075°19'5 5.2
2016-Apr-28 13:33N 39°48' W 075°25'1 0.6
2016-Apr-28 12:33N 39°49' W 075°24'0 0.2
2016-Apr-28 11:33N 39°49' W 075°24'9 8.9
2016-Apr-28 10:33N 39°52' W 075°13'2 2.4
2016-Apr-28 09:33N 39°53' W 075°11'0 0.0
2016-Apr-28 08:33N 39°53' W 075°11'0 0.0
2016-Apr-28 07:34N 39°53' W 075°11'0 0.0
2016-Apr-28 06:33N 39°53' W 075°11'0 0.0
2016-Apr-28 05:33N 39°53' W 075°11'0 0.0
2016-Apr-28 04:33N 39°53' W 075°11'0 0.0
2016-Apr-28 03:33N 39°53' W 075°11'0 0.0
2016-Apr-28 02:33N 39°53' W 075°11'  
2016-Apr-25 18:33N 39°53' W 075°11'0 0.0
2016-Apr-25 17:33N 39°53' W 075°11'0 0.0
2016-Apr-25 16:33N 39°53' W 075°11'0 0.0
2016-Apr-25 15:34N 39°53' W 075°11'0 0.0
2016-Apr-25 14:34N 39°53' W 075°11'0 0.0
2016-Apr-25 13:34N 39°53' W 075°11'0 0.0
2016-Apr-25 12:34N 39°53' W 075°11'0 0.0
2016-Apr-25 11:33N 39°53' W 075°11'0 0.0
2016-Apr-25 10:34N 39°53' W 075°11'0 0.0
2016-Apr-25 09:34N 39°53' W 075°11'0 0.0
2016-Apr-25 08:34N 39°53' W 075°11'0 0.0
2016-Apr-25 07:34N 39°53' W 075°11'0 0.0
2016-Apr-25 06:34N 39°53' W 075°11'0 0.0
2016-Apr-25 05:33N 39°53' W 075°11'3 3.4
2016-Apr-25 04:34N 39°56' W 075°08'0 0.0
2016-Apr-25 03:34N 39°56' W 075°08'0 0.0
2016-Apr-25 02:34N 39°56' W 075°08'0 0.0
2016-Apr-25 01:34N 39°56' W 075°08'3 3.5
2016-Apr-25 00:34N 39°53' W 075°10'0 0.4
2016-Apr-24 23:33N 39°53' W 075°11'0 0.0
2016-Apr-24 22:33N 39°53' W 075°11'0 0.0
2016-Apr-24 21:33N 39°53' W 075°11'0 0.0
2016-Apr-24 20:33N 39°53' W 075°11'0 0.0
2016-Apr-24 19:33N 39°53' W 075°11'0 0.0
2016-Apr-24 18:33N 39°53' W 075°11'0 0.0
2016-Apr-24 17:33N 39°53' W 075°11'0 0.0
2016-Apr-24 16:33N 39°53' W 075°11'0 0.0
2016-Apr-24 15:34N 39°53' W 075°11'0 0.0
2016-Apr-24 14:33N 39°53' W 075°11'4 3.6
2016-Apr-24 13:34N 39°56' W 075°08'1 1.4
2016-Apr-24 12:34N 39°55' W 075°08'1 1.4
2016-Apr-24 11:34N 39°56' W 075°08'0 0.0
2016-Apr-24 10:34N 39°56' W 075°08'1 0.6
2016-Apr-24 09:33N 39°57' W 075°08'1212.0
2016-Apr-24 08:33N 40°04' W 074°56'6 2.5
2016-Apr-24 06:20N 40°07' W 074°50'7 9.6
2016-Apr-24 05:33N 40°03' W 074°58'1010.2
2016-Apr-24 04:33N 39°57' W 075°08'4 3.9
2016-Apr-24 03:33N 39°53' W 075°11'0 0.0
2016-Apr-24 02:33N 39°53' W 075°11'0 0.0
2016-Apr-24 01:33N 39°53' W 075°11'0 0.0
2016-Apr-24 00:33N 39°53' W 075°11'0 0.0
2016-Apr-23 23:33N 39°53' W 075°11'0 0.0
2016-Apr-23 22:33N 39°53' W 075°11'0 0.0
2016-Apr-23 21:33N 39°53' W 075°11'3 3.5
2016-Apr-23 20:33N 39°56' W 075°08'1 0.7
2016-Apr-23 19:33N 39°55' W 075°08'  

Dump ship's entire track history